createdAt,value
2022-11-15T00:01:48.574Z,35.67
2022-11-15T00:04:34.436Z,36.13
2022-11-15T00:07:48.115Z,35.67
2022-11-15T00:10:26.143Z,34.50
2022-11-15T00:13:13.866Z,34.87
2022-11-15T00:16:01.872Z,31.13
2022-11-15T00:18:50.549Z,29.90
2022-11-15T00:21:36.822Z,29.67
2022-11-15T00:24:22.505Z,29.53
2022-11-15T00:27:08.452Z,29.63
2022-11-15T00:29:54.474Z,29.00
2022-11-15T00:32:40.452Z,28.53
2022-11-15T00:35:26.166Z,27.77
2022-11-15T00:38:12.170Z,27.93
2022-11-15T00:40:58.134Z,23.13
2022-11-15T00:43:44.954Z,25.87
2022-11-15T00:46:30.907Z,25.53
2022-11-15T00:49:16.740Z,25.80
2022-11-15T00:52:02.666Z,27.40
2022-11-15T00:54:48.741Z,25.20
2022-11-15T00:57:34.536Z,28.33
2022-11-15T01:00:20.281Z,28.07
2022-11-15T01:03:06.060Z,25.73
2022-11-15T01:05:51.735Z,26.20
2022-11-15T01:08:37.568Z,27.20
2022-11-15T01:11:23.313Z,26.83
2022-11-15T01:14:09.175Z,27.73
2022-11-15T01:16:55.443Z,29.37
2022-11-15T01:19:41.133Z,31.13
2022-11-15T01:22:26.680Z,29.97
2022-11-15T01:25:12.354Z,30.70
2022-11-15T01:27:58.197Z,29.63
2022-11-15T01:30:44.149Z,28.17
2022-11-15T01:33:30.688Z,28.83
2022-11-15T01:36:23.043Z,25.43
2022-11-15T01:39:09.307Z,24.70
2022-11-15T01:41:55.341Z,25.30
2022-11-15T01:44:48.685Z,25.83
2022-11-15T01:47:43.163Z,27.13
2022-11-15T01:50:33.427Z,23.67
2022-11-15T01:53:22.711Z,22.80
2022-11-15T01:56:13.148Z,20.27
2022-11-15T01:59:03.785Z,21.10
2022-11-15T02:01:49.356Z,21.13
2022-11-15T02:04:47.879Z,20.97
2022-11-15T02:07:36.178Z,22.20
2022-11-15T02:10:24.715Z,20.30
2022-11-15T02:13:10.292Z,26.90
2022-11-15T02:16:12.023Z,41.17
2022-11-15T02:19:13.862Z,30.00
2022-11-15T02:22:21.544Z,23.63
2022-11-15T02:25:16.146Z,24.17
2022-11-15T02:28:18.547Z,23.17
2022-11-15T02:31:13.439Z,26.77
2022-11-15T02:34:02.158Z,25.77
2022-11-15T02:37:02.393Z,21.15
2022-11-15T02:39:51.659Z,20.30
2022-11-15T02:43:06.973Z,19.97
2022-11-15T02:46:03.199Z,22.37
2022-11-15T02:48:49.337Z,19.00
2022-11-15T02:51:36.294Z,20.53
2022-11-15T02:54:23.947Z,21.53
2022-11-15T02:57:20.214Z,22.53
2022-11-15T03:00:06.297Z,20.90
2022-11-15T03:03:10.709Z,20.60
2022-11-15T03:06:34.106Z,20.10
2022-11-15T03:09:32.437Z,20.20
2022-11-15T03:12:47.479Z,21.30
2022-11-15T03:15:43.319Z,20.23
2022-11-15T03:18:43.061Z,21.20
2022-11-15T03:21:31.247Z,19.70
2022-11-15T03:24:25.683Z,21.57
2022-11-15T03:27:16.718Z,16.90
2022-11-15T03:30:06.478Z,19.23
2022-11-15T03:32:57.278Z,20.33
2022-11-15T03:35:46.717Z,19.30
2022-11-15T03:38:35.010Z,19.77
2022-11-15T03:41:30.290Z,19.33
2022-11-15T03:44:52.424Z,19.20
2022-11-15T03:47:45.096Z,16.23
2022-11-15T03:50:30.977Z,17.27
2022-11-15T03:53:19.533Z,16.30
2022-11-15T03:56:06.459Z,17.70
2022-11-15T03:58:52.071Z,18.63
2022-11-15T04:01:38.103Z,17.63
2022-11-15T04:04:23.949Z,18.50
2022-11-15T04:07:09.918Z,17.30
2022-11-15T04:10:05.368Z,19.87
2022-11-15T04:12:56.605Z,15.67
2022-11-15T04:15:42.790Z,14.37
2022-11-15T04:18:28.824Z,14.17
2022-11-15T04:21:33.309Z,12.87
2022-11-15T04:24:19.752Z,10.87
2022-11-15T04:27:06.151Z,10.60
2022-11-15T04:29:52.093Z,11.27
2022-11-15T04:32:38.060Z,11.60
2022-11-15T04:35:24.256Z,10.83
2022-11-15T04:38:11.859Z,13.03
2022-11-15T04:40:58.308Z,14.20
2022-11-15T04:43:44.400Z,14.40
2022-11-15T04:46:31.090Z,15.07
2022-11-15T04:49:17.044Z,14.13
2022-11-15T04:52:03.894Z,15.50
2022-11-15T04:54:49.703Z,14.47
2022-11-15T04:57:35.825Z,13.87
2022-11-15T05:00:21.587Z,14.30
2022-11-15T05:03:28.471Z,12.87
2022-11-15T05:10:06.168Z,13.80
2022-11-15T05:12:52.277Z,13.80
2022-11-15T05:15:38.308Z,13.50
2022-11-15T05:18:26.247Z,14.17
2022-11-15T05:21:15.048Z,15.07
2022-11-15T05:24:01.480Z,15.15
2022-11-15T05:26:47.567Z,16.43
2022-11-15T05:29:33.183Z,16.00
2022-11-15T05:32:19.349Z,15.17
2022-11-15T05:35:10.287Z,15.87
2022-11-15T05:37:56.240Z,16.27
2022-11-15T05:40:42.188Z,16.07
2022-11-15T05:43:29.454Z,15.30
2022-11-15T05:46:15.642Z,15.40
2022-11-15T05:49:02.597Z,14.17
2022-11-15T05:51:49.738Z,15.33
2022-11-15T05:54:37.004Z,15.67
2022-11-15T05:57:22.926Z,15.70
2022-11-15T06:00:10.436Z,14.73
2022-11-15T06:02:56.224Z,14.57
2022-11-15T06:05:42.312Z,13.97
2022-11-15T06:19:26.014Z,11.73
2022-11-15T06:22:12.282Z,14.93
2022-11-15T06:25:04.085Z,12.30
2022-11-15T06:27:56.198Z,11.73
2022-11-15T06:30:42.721Z,11.80
2022-11-15T06:33:29.584Z,10.77
2022-11-15T06:36:18.002Z,13.40
2022-11-15T06:39:05.517Z,10.60
2022-11-15T06:41:51.373Z,10.87
2022-11-15T06:44:37.647Z,10.57
2022-11-15T06:47:23.459Z,12.47
2022-11-15T06:50:09.866Z,11.33
2022-11-15T06:52:55.815Z,11.10
2022-11-15T06:55:41.662Z,11.37
2022-11-15T06:58:27.524Z,12.27
2022-11-15T07:01:13.793Z,11.00
2022-11-15T07:04:00.819Z,10.67
2022-11-15T07:09:36.341Z,11.87
2022-11-15T07:12:22.056Z,11.93
2022-11-15T07:15:08.557Z,11.23
2022-11-15T07:17:54.615Z,10.77
2022-11-15T07:20:41.621Z,11.60
2022-11-15T07:23:27.203Z,11.00
2022-11-15T07:26:13.485Z,10.50
2022-11-15T07:28:59.799Z,10.57
2022-11-15T07:31:45.846Z,11.63
2022-11-15T07:34:31.835Z,11.37
2022-11-15T07:37:18.483Z,11.70
2022-11-15T07:40:04.595Z,12.00
2022-11-15T07:42:57.386Z,11.17
2022-11-15T07:45:45.295Z,11.37
2022-11-15T07:48:43.227Z,15.68
2022-11-15T07:51:29.982Z,12.98
2022-11-15T07:54:16.998Z,10.87
2022-11-15T07:57:07.327Z,10.63
2022-11-15T07:59:53.659Z,11.47
2022-11-15T08:02:39.769Z,11.27
2022-11-15T08:05:26.165Z,9.67
2022-11-15T08:08:12.810Z,10.00
2022-11-15T08:10:59.838Z,10.90
2022-11-15T08:13:46.036Z,9.43
2022-11-15T08:16:32.124Z,10.17
2022-11-15T08:19:19.014Z,9.80
2022-11-15T08:22:05.009Z,8.87
2022-11-15T08:24:50.900Z,10.13
2022-11-15T08:27:41.044Z,11.17
2022-11-15T08:30:26.743Z,9.50
2022-11-15T08:33:14.885Z,9.47
2022-11-15T08:36:02.057Z,11.07
2022-11-15T08:38:47.977Z,10.57
2022-11-15T08:41:37.966Z,9.63
2022-11-15T08:44:25.138Z,10.60
2022-11-15T08:47:12.712Z,9.37
2022-11-15T08:49:58.840Z,10.73
2022-11-15T08:52:45.541Z,11.47
2022-11-15T08:55:31.602Z,14.87
2022-11-15T08:58:17.827Z,12.70
2022-11-15T09:01:05.780Z,14.87
2022-11-15T09:03:52.427Z,14.00
2022-11-15T09:06:43.092Z,15.90
2022-11-15T09:09:29.703Z,15.10
2022-11-15T09:12:15.994Z,14.33
2022-11-15T09:15:01.835Z,14.47
2022-11-15T09:17:47.455Z,12.23
2022-11-15T09:20:33.129Z,12.10
2022-11-15T09:23:19.506Z,10.93
2022-11-15T09:26:06.610Z,11.07
2022-11-15T09:31:56.558Z,12.70
2022-11-15T09:34:42.371Z,10.73
2022-11-15T09:37:29.211Z,9.63
2022-11-15T09:40:18.534Z,9.33
2022-11-15T09:43:42.373Z,10.40
2022-11-15T09:46:52.304Z,8.73
2022-11-15T09:49:22.823Z,10.37
2022-11-15T09:57:36.431Z,8.27
2022-11-15T10:03:24.938Z,7.87
2022-11-15T10:05:58.281Z,8.27
2022-11-15T10:08:39.009Z,8.57
2022-11-15T10:11:39.255Z,10.33
2022-11-15T10:14:19.981Z,7.73
2022-11-15T10:17:20.011Z,8.30
2022-11-15T10:20:05.249Z,8.73
2022-11-15T10:22:41.641Z,8.87
2022-11-15T10:25:09.767Z,9.67
2022-11-15T10:27:37.557Z,8.50
2022-11-15T10:30:11.447Z,9.77
2022-11-15T10:32:40.757Z,11.00
2022-11-15T10:35:23.874Z,8.60
2022-11-15T10:37:51.636Z,20.03
2022-11-15T10:40:24.974Z,8.85
2022-11-15T10:43:06.962Z,7.50
2022-11-15T10:45:36.162Z,8.73
2022-11-15T10:48:13.385Z,8.98
2022-11-15T10:50:43.517Z,8.27
2022-11-15T10:53:22.581Z,8.80
2022-11-15T10:55:54.204Z,10.43
2022-11-15T10:58:40.570Z,10.50
2022-11-15T11:01:24.229Z,11.40
2022-11-15T11:04:07.402Z,11.98
2022-11-15T11:06:53.741Z,12.35
2022-11-15T11:09:43.686Z,9.97
2022-11-15T11:12:13.756Z,11.02
2022-11-15T11:14:41.981Z,11.55
2022-11-15T11:17:32.726Z,11.10
2022-11-15T11:20:26.637Z,12.05
2022-11-15T11:23:19.160Z,11.65
2022-11-15T11:26:25.615Z,11.65
2022-11-15T11:29:21.134Z,12.40
2022-11-15T11:32:02.696Z,11.70
2022-11-15T11:34:49.610Z,14.63
2022-11-15T11:37:45.762Z,13.13
2022-11-15T11:40:31.792Z,14.27
2022-11-15T11:43:27.992Z,15.70
2022-11-15T11:46:15.385Z,13.18
2022-11-15T11:48:47.070Z,31.07
2022-11-15T11:51:32.356Z,14.00
2022-11-15T11:54:07.607Z,12.95
2022-11-15T11:56:38.506Z,13.90
2022-11-15T11:59:12.331Z,12.15
2022-11-15T12:01:44.996Z,12.15
2022-11-15T12:04:20.158Z,12.65
2022-11-15T12:06:56.818Z,12.07
2022-11-15T12:09:32.122Z,12.57
2022-11-15T12:12:26.239Z,11.88
2022-11-15T12:14:59.025Z,12.20
2022-11-15T12:17:33.172Z,11.30
2022-11-15T12:20:10.451Z,12.90
2022-11-15T12:22:45.091Z,12.18
2022-11-15T12:25:24.049Z,14.85
2022-11-15T12:28:03.576Z,13.62
2022-11-15T12:31:02.122Z,14.90
2022-11-15T12:33:38.558Z,13.52
2022-11-15T12:36:11.545Z,14.93
2022-11-15T12:38:57.875Z,16.58
2022-11-15T12:43:56.991Z,15.45
2022-11-15T12:46:30.319Z,13.43
2022-11-15T12:49:04.302Z,18.62
2022-11-15T12:51:44.018Z,20.40
2022-11-15T12:54:24.068Z,19.50
2022-11-15T12:57:03.919Z,21.15
2022-11-15T12:59:56.483Z,17.17
2022-11-15T13:02:30.563Z,15.68
2022-11-15T13:05:16.929Z,14.85
2022-11-15T13:07:44.340Z,14.55
2022-11-15T13:10:14.921Z,16.55
2022-11-15T13:12:45.321Z,14.40
2022-11-15T13:15:12.992Z,15.05
2022-11-15T13:17:56.815Z,19.50
2022-11-15T13:20:31.919Z,18.62
2022-11-15T13:23:13.462Z,18.65
2022-11-15T13:26:10.083Z,15.75
2022-11-15T13:28:46.084Z,14.25
2022-11-15T13:31:42.453Z,16.20
2022-11-15T13:37:21.812Z,20.80
2022-11-15T13:39:50.581Z,18.95
2022-11-15T13:42:20.891Z,18.62
2022-11-15T13:44:59.663Z,19.37
2022-11-15T13:47:28.848Z,20.83
2022-11-15T13:50:02.362Z,16.75
2022-11-15T13:52:35.091Z,17.70
2022-11-15T13:55:14.598Z,22.25
2022-11-15T13:57:46.482Z,25.02
2022-11-15T14:00:38.221Z,22.15
2022-11-15T14:03:32.934Z,21.70
2022-11-15T14:30:04.033Z,22.93
2022-11-15T14:32:47.678Z,25.15
2022-11-15T14:35:22.868Z,66.50
2022-11-15T14:37:51.325Z,27.03
2022-11-15T14:40:21.381Z,24.10
2022-11-15T14:42:50.353Z,27.00
2022-11-15T14:45:21.184Z,28.23
2022-11-15T14:47:49.312Z,31.87
2022-11-15T14:50:21.098Z,28.23
2022-11-15T14:52:49.885Z,47.67
2022-11-15T14:55:24.959Z,40.17
2022-11-15T14:57:53.659Z,28.93
2022-11-15T15:00:21.937Z,27.92
2022-11-15T15:02:51.989Z,28.05
2022-11-15T15:05:37.728Z,31.73
2022-11-15T15:08:06.579Z,30.00
2022-11-15T15:10:44.298Z,35.27
2022-11-15T15:13:23.362Z,32.97
2022-11-15T15:15:52.773Z,28.50
2022-11-15T15:18:21.127Z,24.40
2022-11-15T15:21:08.572Z,25.23
2022-11-15T15:23:37.293Z,23.37
2022-11-15T15:26:05.172Z,22.08
2022-11-15T15:28:34.724Z,25.50
2022-11-15T15:31:03.766Z,26.33
2022-11-15T15:33:31.208Z,23.75
2022-11-15T15:35:59.527Z,23.80
2022-11-15T15:38:27.770Z,21.73
2022-11-15T15:40:58.031Z,20.27
2022-11-15T15:43:25.396Z,24.17
2022-11-15T15:45:53.068Z,38.40
2022-11-15T15:48:20.814Z,26.30
2022-11-15T15:50:50.774Z,26.73
2022-11-15T15:53:19.294Z,26.90
2022-11-15T15:55:46.714Z,27.93
2022-11-15T15:58:14.317Z,27.23
2022-11-15T16:00:43.416Z,26.42
2022-11-15T16:03:11.421Z,25.48
2022-11-15T16:05:39.344Z,26.97
2022-11-15T16:08:06.809Z,27.53
2022-11-15T16:10:35.962Z,26.53
2022-11-15T16:15:32.824Z,28.03
2022-11-15T16:18:02.317Z,29.97
2022-11-15T16:20:34.847Z,29.30
2022-11-15T16:23:09.160Z,26.50
2022-11-15T16:25:46.111Z,32.73
2022-11-15T16:28:25.254Z,32.53
2022-11-15T16:31:06.555Z,29.65
2022-11-15T16:33:35.224Z,28.67
2022-11-15T16:36:03.894Z,29.63
2022-11-15T16:38:32.289Z,28.95
2022-11-15T16:41:00.913Z,33.15
2022-11-15T16:43:28.285Z,30.30
2022-11-15T16:45:55.657Z,26.57
2022-11-15T16:48:25.948Z,25.17
2022-11-15T16:50:58.346Z,20.70
2022-11-15T16:53:28.138Z,19.93
2022-11-15T16:55:58.216Z,24.70
2022-11-15T16:58:26.051Z,43.03
2022-11-15T17:00:54.939Z,62.87
2022-11-15T17:03:23.791Z,60.92
2022-11-15T17:05:52.089Z,57.83
2022-11-15T17:08:22.145Z,59.00
2022-11-15T17:10:49.617Z,52.87
2022-11-15T17:13:17.424Z,44.67
2022-11-15T17:15:44.789Z,44.67
2022-11-15T17:18:15.891Z,44.37
2022-11-15T17:20:43.633Z,60.27
2022-11-15T17:23:15.116Z,51.33
2022-11-15T17:25:42.780Z,39.80
2022-11-15T17:28:10.807Z,43.10
2022-11-15T17:30:42.010Z,30.97
2022-11-15T17:33:09.390Z,22.57
2022-11-15T17:35:37.082Z,18.23
2022-11-15T17:38:04.327Z,26.20
2022-11-15T17:40:31.971Z,68.80
2022-11-15T17:42:59.632Z,82.37
2022-11-15T17:45:27.112Z,69.33
2022-11-15T17:47:54.537Z,74.13
2022-11-15T17:50:22.366Z,59.23
2022-11-15T17:52:50.556Z,51.57
2022-11-15T17:55:18.635Z,44.90
2022-11-15T17:57:46.522Z,40.42
2022-11-15T18:00:14.545Z,41.97
2022-11-15T18:02:42.728Z,37.73
2022-11-15T18:05:10.325Z,45.63
2022-11-15T18:07:39.098Z,56.45
2022-11-15T18:10:07.344Z,83.80
2022-11-15T18:12:34.598Z,82.57
2022-11-15T18:15:02.097Z,69.23
2022-11-15T18:17:29.738Z,65.40
2022-11-15T18:19:57.044Z,65.43
2022-11-15T18:22:25.186Z,63.03
2022-11-15T18:24:52.946Z,48.08
2022-11-15T18:27:20.268Z,46.20
2022-11-15T18:29:47.652Z,47.50
2022-11-15T18:32:17.889Z,54.53
2022-11-15T18:34:45.296Z,58.67
2022-11-15T18:37:12.655Z,48.37
2022-11-15T18:39:40.379Z,52.00
2022-11-15T18:42:07.700Z,74.07
2022-11-15T18:44:34.995Z,94.13
2022-11-15T18:47:02.721Z,82.27
2022-11-15T18:49:30.095Z,75.03
2022-11-15T18:51:57.529Z,74.20
2022-11-15T18:54:30.696Z,80.73
2022-11-15T18:57:12.524Z,74.00
2022-11-15T18:59:40.135Z,80.53
2022-11-15T19:02:13.256Z,70.50
2022-11-15T19:04:41.068Z,80.37
2022-11-15T19:07:08.618Z,72.00
2022-11-15T19:09:36.257Z,61.03
2022-11-15T19:12:04.448Z,75.23
2022-11-15T19:14:32.051Z,66.83
2022-11-15T19:16:59.641Z,53.80
2022-11-15T19:19:30.500Z,87.87
2022-11-15T19:21:58.057Z,88.70
2022-11-15T19:24:27.366Z,70.03
2022-11-15T19:26:55.471Z,70.93
2022-11-15T19:29:22.831Z,71.40
2022-11-15T19:31:50.362Z,66.87
2022-11-15T19:34:18.258Z,60.03
2022-11-15T19:36:46.407Z,95.80
2022-11-15T19:39:15.200Z,93.40
2022-11-15T19:41:44.810Z,86.73
2022-11-15T19:44:13.834Z,74.82
2022-11-15T19:46:41.877Z,68.85
2022-11-15T19:49:11.490Z,76.78
2022-11-15T19:51:42.897Z,65.28
2022-11-15T19:54:11.489Z,53.57
2022-11-15T19:56:40.245Z,48.93
2022-11-15T19:59:09.108Z,61.40
2022-11-15T20:01:39.289Z,57.60
2022-11-15T20:04:08.254Z,54.80
2022-11-15T20:06:41.588Z,60.63
2022-11-15T20:09:13.598Z,89.40
2022-11-15T20:11:41.161Z,77.33
2022-11-15T20:14:10.891Z,72.30
2022-11-15T20:19:05.400Z,73.20
2022-11-15T20:21:33.112Z,66.67
2022-11-15T20:24:00.713Z,58.53
2022-11-15T20:26:28.082Z,54.67
2022-11-15T20:29:01.343Z,44.13
2022-11-15T20:31:29.843Z,51.63
2022-11-15T20:33:57.759Z,67.25
2022-11-15T20:36:25.211Z,71.03
2022-11-15T20:38:57.411Z,62.73
2022-11-15T20:41:25.951Z,67.07
2022-11-15T20:43:53.411Z,64.37
2022-11-15T20:46:21.304Z,51.37
2022-11-15T20:48:48.972Z,45.03
2022-11-15T20:51:18.490Z,62.87
2022-11-15T20:53:47.297Z,65.83
2022-11-15T20:56:19.451Z,84.20
2022-11-15T20:58:48.389Z,94.57
2022-11-15T21:01:17.911Z,97.55
2022-11-15T21:06:12.714Z,73.40
2022-11-15T21:08:59.591Z,57.90
2022-11-15T21:11:45.555Z,62.90
2022-11-15T21:14:13.276Z,62.17
2022-11-15T21:16:40.573Z,51.03
2022-11-15T21:19:08.312Z,79.03
2022-11-15T21:21:37.096Z,89.07
2022-11-15T21:24:06.402Z,77.95
2022-11-15T21:29:02.689Z,61.93
2022-11-15T21:31:30.380Z,52.13
2022-11-15T21:33:57.635Z,49.30
2022-11-15T21:36:25.352Z,45.53
2022-11-15T21:38:53.895Z,35.20
2022-11-15T21:41:21.255Z,46.47
2022-11-15T21:43:48.960Z,47.13
2022-11-15T21:46:16.251Z,39.43
2022-11-15T21:48:43.660Z,32.63
2022-11-15T21:51:12.125Z,27.03
2022-11-15T21:53:39.978Z,23.77
2022-11-15T21:56:07.624Z,26.90
2022-11-15T21:58:36.421Z,44.07
2022-11-15T22:01:23.192Z,45.72
2022-11-15T22:03:51.075Z,38.17
2022-11-15T22:06:18.593Z,30.77
2022-11-15T22:08:46.588Z,30.67
2022-11-15T22:11:15.159Z,29.77
2022-11-15T22:13:43.199Z,23.93
2022-11-15T22:16:11.146Z,29.40
2022-11-15T22:18:39.224Z,25.27
2022-11-15T22:21:12.165Z,31.67
2022-11-15T22:23:40.885Z,43.37
2022-11-15T22:26:11.781Z,45.77
2022-11-15T22:28:39.224Z,50.40
2022-11-15T22:31:07.520Z,47.47
2022-11-15T22:33:36.058Z,50.70
2022-11-15T22:36:05.340Z,37.83
2022-11-15T22:38:33.363Z,31.50
2022-11-15T22:41:01.082Z,28.97
2022-11-15T22:43:28.606Z,46.53
2022-11-15T22:46:00.489Z,49.00
2022-11-15T22:48:34.062Z,54.73
2022-11-15T22:51:03.166Z,53.40
2022-11-15T22:53:30.992Z,34.60
2022-11-15T22:56:00.594Z,42.60
2022-11-15T22:58:31.180Z,39.47
2022-11-15T23:01:01.870Z,44.97
2022-11-15T23:03:31.236Z,42.40
2022-11-15T23:08:31.175Z,41.57
2022-11-15T23:11:22.333Z,40.40
2022-11-15T23:13:52.187Z,40.73
2022-11-15T23:18:52.681Z,46.03
2022-11-15T23:24:15.313Z,40.90
2022-11-15T23:26:43.817Z,38.33
2022-11-15T23:29:13.975Z,40.38
2022-11-15T23:32:02.544Z,42.27
2022-11-15T23:34:31.495Z,31.37
2022-11-15T23:36:59.971Z,38.53
2022-11-15T23:39:28.013Z,39.00
2022-11-15T23:41:55.545Z,37.63
2022-11-15T23:44:23.791Z,34.20
2022-11-15T23:46:51.683Z,33.13
2022-11-15T23:49:19.182Z,29.57
2022-11-15T23:51:47.787Z,30.47
2022-11-15T23:54:15.414Z,28.63
2022-11-15T23:56:42.739Z,29.73
2022-11-15T23:59:10.452Z,29.13
